sensor_id;sensor_type;location;lat;lon;timestamp;pressure;altitude;pressure_sealevel;temperature;humidity
68986;BME280;56035;37.534;-122.308;2023-02-28T00:00:51;101132.97;;;7.58;100.00
68986;BME280;56035;37.534;-122.308;2023-02-28T00:03:17;101138.06;;;7.48;100.00
68986;BME280;56035;37.534;-122.308;2023-02-28T00:05:43;101137.84;;;7.43;100.00
68986;BME280;56035;37.534;-122.308;2023-02-28T00:08:09;101144.19;;;7.37;100.00
68986;BME280;56035;37.534;-122.308;2023-02-28T00:10:36;101144.19;;;7.30;100.00
68986;BME280;56035;37.534;-122.308;2023-02-28T00:13:04;101146.50;;;7.26;100.00
68986;BME280;56035;37.534;-122.308;2023-02-28T00:15:32;101145.44;;;7.27;100.00
68986;BME280;56035;37.534;-122.308;2023-02-28T00:17:58;101140.63;;;7.23;100.00
68986;BME280;56035;37.534;-122.308;2023-02-28T00:20:25;101137.22;;;7.27;100.00
68986;BME280;56035;37.534;-122.308;2023-02-28T00:22:52;101140.38;;;7.31;100.00
68986;BME280;56035;37.534;-122.308;2023-02-28T00:25:20;101145.03;;;7.31;100.00
68986;BME280;56035;37.534;-122.308;2023-02-28T00:27:46;101137.44;;;7.19;100.00
68986;BME280;56035;37.534;-122.308;2023-02-28T00:30:15;101150.94;;;7.14;100.00
68986;BME280;56035;37.534;-122.308;2023-02-28T00:32:42;101147.13;;;7.02;100.00
68986;BME280;56035;37.534;-122.308;2023-02-28T00:35:09;101144.59;;;6.94;100.00
68986;BME280;56035;37.534;-122.308;2023-02-28T00:37:36;101156.38;;;6.81;100.00
68986;BME280;56035;37.534;-122.308;2023-02-28T00:40:03;101160.59;;;6.77;100.00
68986;BME280;56035;37.534;-122.308;2023-02-28T00:42:33;101170.22;;;6.66;100.00
68986;BME280;56035;37.534;-122.308;2023-02-28T00:44:59;101167.69;;;6.58;100.00
68986;BME280;56035;37.534;-122.308;2023-02-28T00:47:25;101176.31;;;6.55;100.00
68986;BME280;56035;37.534;-122.308;2023-02-28T00:49:52;101175.22;;;6.49;100.00
68986;BME280;56035;37.534;-122.308;2023-02-28T00:52:38;101189.28;;;6.40;100.00
68986;BME280;56035;37.534;-122.308;2023-02-28T00:55:05;101179.19;;;6.40;100.00
68986;BME280;56035;37.534;-122.308;2023-02-28T00:57:31;101191.19;;;6.39;100.00
68986;BME280;56035;37.534;-122.308;2023-02-28T00:59:57;101180.47;;;6.38;100.00
68986;BME280;56035;37.534;-122.308;2023-02-28T01:02:23;101188.06;;;6.42;100.00
68986;BME280;56035;37.534;-122.308;2023-02-28T01:04:50;101177.53;;;6.46;100.00
68986;BME280;56035;37.534;-122.308;2023-02-28T01:07:16;101187.41;;;6.47;100.00
68986;BME280;56035;37.534;-122.308;2023-02-28T01:09:42;101193.09;;;6.39;100.00
68986;BME280;56035;37.534;-122.308;2023-02-28T01:12:08;101192.44;;;6.37;100.00
68986;BME280;56035;37.534;-122.308;2023-02-28T01:14:35;101181.50;;;6.37;100.00
68986;BME280;56035;37.534;-122.308;2023-02-28T01:17:02;101191.59;;;6.36;100.00
68986;BME280;56035;37.534;-122.308;2023-02-28T01:19:28;101193.50;;;6.36;100.00
68986;BME280;56035;37.534;-122.308;2023-02-28T01:21:54;101186.94;;;6.30;100.00
68986;BME280;56035;37.534;-122.308;2023-02-28T01:24:20;101198.50;;;6.25;100.00
68986;BME280;56035;37.534;-122.308;2023-02-28T01:26:47;101204.16;;;6.24;100.00
68986;BME280;56035;37.534;-122.308;2023-02-28T01:29:13;101198.66;;;6.17;100.00
68986;BME280;56035;37.534;-122.308;2023-02-28T01:31:39;101197.59;;;6.12;100.00
68986;BME280;56035;37.534;-122.308;2023-02-28T01:34:07;101201.97;;;6.06;100.00
68986;BME280;56035;37.534;-122.308;2023-02-28T01:36:33;101200.22;;;5.98;100.00
68986;BME280;56035;37.534;-122.308;2023-02-28T01:38:59;101203.59;;;5.94;100.00
68986;BME280;56035;37.534;-122.308;2023-02-28T01:41:28;101204.56;;;5.86;100.00
68986;BME280;56035;37.534;-122.308;2023-02-28T01:44:01;101199.69;;;5.81;100.00
68986;BME280;56035;37.534;-122.308;2023-02-28T01:46:33;101200.91;;;5.72;100.00
68986;BME280;56035;37.534;-122.308;2023-02-28T01:49:09;101206.75;;;5.69;100.00
68986;BME280;56035;37.534;-122.308;2023-02-28T01:51:43;101200.59;;;5.60;100.00
68986;BME280;56035;37.534;-122.308;2023-02-28T01:54:20;101208.75;;;5.54;100.00
68986;BME280;56035;37.534;-122.308;2023-02-28T01:56:56;101205.75;;;5.49;100.00
68986;BME280;56035;37.534;-122.308;2023-02-28T01:59:29;101209.97;;;5.51;100.00
68986;BME280;56035;37.534;-122.308;2023-02-28T02:01:58;101207.69;;;5.55;100.00
68986;BME280;56035;37.534;-122.308;2023-02-28T02:04:30;101222.00;;;5.57;100.00
68986;BME280;56035;37.534;-122.308;2023-02-28T02:06:59;101223.25;;;5.54;100.00
68986;BME280;56035;37.534;-122.308;2023-02-28T02:09:25;101223.69;;;5.58;100.00
68986;BME280;56035;37.534;-122.308;2023-02-28T02:11:51;101223.47;;;5.53;100.00
68986;BME280;56035;37.534;-122.308;2023-02-28T02:14:31;101221.31;;;5.48;100.00
68986;BME280;56035;37.534;-122.308;2023-02-28T02:17:38;101227.59;;;5.49;100.00
68986;BME280;56035;37.534;-122.308;2023-02-28T02:20:16;101235.97;;;5.40;100.00
68986;BME280;56035;37.534;-122.308;2023-02-28T02:28:22;101241.63;;;5.18;100.00
68986;BME280;56035;37.534;-122.308;2023-02-28T02:33:45;101250.69;;;5.03;100.00
68986;BME280;56035;37.534;-122.308;2023-02-28T02:36:22;101248.28;;;4.93;100.00
68986;BME280;56035;37.534;-122.308;2023-02-28T02:41:48;101249.19;;;4.79;100.00
68986;BME280;56035;37.534;-122.308;2023-02-28T02:44:31;101250.88;;;4.80;100.00
68986;BME280;56035;37.534;-122.308;2023-02-28T02:47:11;101252.75;;;4.80;100.00
68986;BME280;56035;37.534;-122.308;2023-02-28T02:49:39;101260.69;;;4.75;100.00
68986;BME280;56035;37.534;-122.308;2023-02-28T02:52:09;101267.47;;;4.64;100.00
68986;BME280;56035;37.534;-122.308;2023-02-28T02:54:43;101268.72;;;4.61;100.00
68986;BME280;56035;37.534;-122.308;2023-02-28T02:57:17;101270.31;;;4.56;100.00
68986;BME280;56035;37.534;-122.308;2023-02-28T02:59:46;101273.81;;;4.50;100.00
68986;BME280;56035;37.534;-122.308;2023-02-28T03:02:15;101278.97;;;4.44;100.00
68986;BME280;56035;37.534;-122.308;2023-02-28T03:04:47;101288.56;;;4.40;100.00
68986;BME280;56035;37.534;-122.308;2023-02-28T03:07:14;101280.31;;;4.34;100.00
68986;BME280;56035;37.534;-122.308;2023-02-28T03:09:40;101278.53;;;4.26;100.00
68986;BME280;56035;37.534;-122.308;2023-02-28T03:12:11;101275.22;;;4.16;100.00
68986;BME280;56035;37.534;-122.308;2023-02-28T03:15:22;101290.25;;;4.12;100.00
68986;BME280;56035;37.534;-122.308;2023-02-28T03:20:45;101293.81;;;3.97;100.00
68986;BME280;56035;37.534;-122.308;2023-02-28T03:23:20;101293.72;;;3.91;100.00
68986;BME280;56035;37.534;-122.308;2023-02-28T03:26:06;101295.28;;;3.85;100.00
68986;BME280;56035;37.534;-122.308;2023-02-28T03:31:30;101294.34;;;3.78;100.00
68986;BME280;56035;37.534;-122.308;2023-02-28T03:34:12;101309.03;;;3.77;100.00
68986;BME280;56035;37.534;-122.308;2023-02-28T03:36:45;101307.34;;;3.76;100.00
68986;BME280;56035;37.534;-122.308;2023-02-28T03:39:36;101299.88;;;3.70;100.00
68986;BME280;56035;37.534;-122.308;2023-02-28T03:42:09;101300.25;;;3.67;100.00
68986;BME280;56035;37.534;-122.308;2023-02-28T03:44:53;101297.22;;;3.62;100.00
68986;BME280;56035;37.534;-122.308;2023-02-28T03:47:28;101299.31;;;3.60;100.00
68986;BME280;56035;37.534;-122.308;2023-02-28T03:50:12;101305.75;;;3.59;100.00
68986;BME280;56035;37.534;-122.308;2023-02-28T03:53:04;101319.03;;;3.62;100.00
68986;BME280;56035;37.534;-122.308;2023-02-28T03:55:40;101331.56;;;3.71;100.00
68986;BME280;56035;37.534;-122.308;2023-02-28T04:00:49;101317.41;;;3.90;100.00
68986;BME280;56035;37.534;-122.308;2023-02-28T04:03:16;101319.41;;;3.96;100.00
68986;BME280;56035;37.534;-122.308;2023-02-28T04:05:54;101328.69;;;4.02;100.00
68986;BME280;56035;37.534;-122.308;2023-02-28T04:08:21;101331.72;;;4.07;100.00
68986;BME280;56035;37.534;-122.308;2023-02-28T04:11:05;101335.13;;;4.09;100.00
68986;BME280;56035;37.534;-122.308;2023-02-28T04:13:32;101335.28;;;4.08;100.00
68986;BME280;56035;37.534;-122.308;2023-02-28T04:15:58;101336.13;;;4.08;100.00
68986;BME280;56035;37.534;-122.308;2023-02-28T04:18:25;101332.94;;;4.05;100.00
68986;BME280;56035;37.534;-122.308;2023-02-28T04:20:51;101328.53;;;4.04;100.00
68986;BME280;56035;37.534;-122.308;2023-02-28T04:23:17;101333.31;;;4.02;100.00
68986;BME280;56035;37.534;-122.308;2023-02-28T04:25:43;101333.31;;;4.02;100.00
68986;BME280;56035;37.534;-122.308;2023-02-28T04:28:09;101335.19;;;4.01;100.00
68986;BME280;56035;37.534;-122.308;2023-02-28T04:30:37;101337.06;;;4.01;100.00
68986;BME280;56035;37.534;-122.308;2023-02-28T04:33:04;101332.94;;;4.05;100.00
68986;BME280;56035;37.534;-122.308;2023-02-28T04:35:30;101340.09;;;4.06;100.00
68986;BME280;56035;37.534;-122.308;2023-02-28T04:37:56;101331.72;;;4.07;100.00
68986;BME280;56035;37.534;-122.308;2023-02-28T04:40:22;101335.78;;;4.11;100.00
68986;BME280;56035;37.534;-122.308;2023-02-28T04:42:49;101337.66;;;4.11;100.00
68986;BME280;56035;37.534;-122.308;2023-02-28T04:45:15;101331.84;;;4.14;100.00
68986;BME280;56035;37.534;-122.308;2023-02-28T04:47:42;101338.81;;;4.16;100.00
68986;BME280;56035;37.534;-122.308;2023-02-28T04:50:09;101335.88;;;4.18;100.00
68986;BME280;56035;37.534;-122.308;2023-02-28T04:52:35;101324.78;;;4.19;100.00
68986;BME280;56035;37.534;-122.308;2023-02-28T04:55:02;101327.53;;;4.19;100.00
68986;BME280;56035;37.534;-122.308;2023-02-28T04:57:28;101337.59;;;4.19;100.00
68986;BME280;56035;37.534;-122.308;2023-02-28T04:59:55;101344.53;;;4.21;100.00
68986;BME280;56035;37.534;-122.308;2023-02-28T05:02:21;101341.63;;;4.23;100.00
68986;BME280;56035;37.534;-122.308;2023-02-28T05:04:49;101347.75;;;4.25;100.00
68986;BME280;56035;37.534;-122.308;2023-02-28T05:07:15;101356.78;;;4.26;100.00
68986;BME280;56035;37.534;-122.308;2023-02-28T05:09:41;101354.22;;;4.24;100.00
68986;BME280;56035;37.534;-122.308;2023-02-28T05:12:09;101347.63;;;4.18;100.00
68986;BME280;56035;37.534;-122.308;2023-02-28T05:14:35;101346.13;;;4.16;100.00
68986;BME280;56035;37.534;-122.308;2023-02-28T05:17:02;101353.28;;;4.17;100.00
68986;BME280;56035;37.534;-122.308;2023-02-28T05:19:28;101350.91;;;4.14;100.00
68986;BME280;56035;37.534;-122.308;2023-02-28T05:21:55;101346.69;;;4.11;100.00
68986;BME280;56035;37.534;-122.308;2023-02-28T05:24:21;101351.00;;;4.06;100.00
68986;BME280;56035;37.534;-122.308;2023-02-28T05:26:52;101354.75;;;4.05;100.00
68986;BME280;56035;37.534;-122.308;2023-02-28T05:29:18;101355.47;;;3.98;100.00
68986;BME280;56035;37.534;-122.308;2023-02-28T05:31:45;101358.03;;;4.00;100.00
68986;BME280;56035;37.534;-122.308;2023-02-28T05:34:11;101345.44;;;3.99;100.00
68986;BME280;56035;37.534;-122.308;2023-02-28T05:36:38;101341.13;;;4.05;100.00
68986;BME280;56035;37.534;-122.308;2023-02-28T05:39:08;101344.31;;;4.08;100.00
68986;BME280;56035;37.534;-122.308;2023-02-28T05:41:41;101351.97;;;4.13;100.00
68986;BME280;56035;37.534;-122.308;2023-02-28T05:44:09;101351.03;;;4.20;100.00
68986;BME280;56035;37.534;-122.308;2023-02-28T05:46:35;101354.53;;;4.29;100.00
68986;BME280;56035;37.534;-122.308;2023-02-28T05:49:01;101362.34;;;4.32;100.00
68986;BME280;56035;37.534;-122.308;2023-02-28T05:51:28;101387.00;;;4.39;100.00
68986;BME280;56035;37.534;-122.308;2023-02-28T05:53:54;101391.88;;;4.43;100.00
68986;BME280;56035;37.534;-122.308;2023-02-28T05:56:20;101408.28;;;4.58;100.00
68986;BME280;56035;37.534;-122.308;2023-02-28T05:58:47;101425.97;;;4.62;100.00
68986;BME280;56035;37.534;-122.308;2023-02-28T06:01:37;101420.97;;;4.66;100.00
68986;BME280;56035;37.534;-122.308;2023-02-28T06:04:07;101407.34;;;4.66;100.00
68986;BME280;56035;37.534;-122.308;2023-02-28T06:06:33;101406.03;;;4.62;100.00
68986;BME280;56035;37.534;-122.308;2023-02-28T06:09:04;101417.09;;;4.60;100.00
68986;BME280;56035;37.534;-122.308;2023-02-28T06:11:31;101420.78;;;4.53;100.00
68986;BME280;56035;37.534;-122.308;2023-02-28T06:13:58;101426.41;;;4.51;100.00
68986;BME280;56035;37.534;-122.308;2023-02-28T06:16:27;101421.34;;;4.48;100.00
68986;BME280;56035;37.534;-122.308;2023-02-28T06:18:54;101434.50;;;4.44;100.00
68986;BME280;56035;37.534;-122.308;2023-02-28T06:21:23;101444.28;;;4.39;100.00
68986;BME280;56035;37.534;-122.308;2023-02-28T06:23:50;101442.81;;;4.28;100.00
68986;BME280;56035;37.534;-122.308;2023-02-28T06:26:16;101442.22;;;4.18;100.00
68986;BME280;56035;37.534;-122.308;2023-02-28T06:28:42;101450.50;;;4.10;100.00
68986;BME280;56035;37.534;-122.308;2023-02-28T06:31:12;101453.28;;;4.02;100.00
68986;BME280;56035;37.534;-122.308;2023-02-28T06:33:39;101455.03;;;3.94;100.00
68986;BME280;56035;37.534;-122.308;2023-02-28T06:36:07;101454.25;;;3.86;100.00
68986;BME280;56035;37.534;-122.308;2023-02-28T06:38:33;101448.00;;;3.77;100.00
68986;BME280;56035;37.534;-122.308;2023-02-28T06:41:00;101450.97;;;3.67;100.00
68986;BME280;56035;37.534;-122.308;2023-02-28T06:43:33;101447.78;;;3.56;100.00
68986;BME280;56035;37.534;-122.308;2023-02-28T06:46:02;101441.38;;;3.48;100.00
68986;BME280;56035;37.534;-122.308;2023-02-28T06:48:28;101440.75;;;3.38;100.00
68986;BME280;56035;37.534;-122.308;2023-02-28T06:51:19;101452.19;;;3.34;100.00
68986;BME280;56035;37.534;-122.308;2023-02-28T06:53:48;101451.50;;;3.32;100.00
68986;BME280;56035;37.534;-122.308;2023-02-28T06:56:16;101453.69;;;3.36;100.00
68986;BME280;56035;37.534;-122.308;2023-02-28T06:58:46;101439.91;;;3.38;100.00
68986;BME280;56035;37.534;-122.308;2023-02-28T07:01:13;101443.97;;;3.42;100.00
68986;BME280;56035;37.534;-122.308;2023-02-28T07:03:40;101447.84;;;3.47;100.00
68986;BME280;56035;37.534;-122.308;2023-02-28T07:06:06;101443.75;;;3.51;100.00
68986;BME280;56035;37.534;-122.308;2023-02-28T07:08:34;101439.81;;;3.54;100.00
68986;BME280;56035;37.534;-122.308;2023-02-28T07:11:02;101445.41;;;3.61;100.00
68986;BME280;56035;37.534;-122.308;2023-02-28T07:13:28;101438.25;;;3.60;100.00
68986;BME280;56035;37.534;-122.308;2023-02-28T07:16:04;101441.09;;;3.66;100.00
68986;BME280;56035;37.534;-122.308;2023-02-28T07:18:31;101446.56;;;3.66;100.00
68986;BME280;56035;37.534;-122.308;2023-02-28T07:20:58;101448.25;;;3.67;100.00
68986;BME280;56035;37.534;-122.308;2023-02-28T07:23:24;101440.06;;;3.67;100.00
68986;BME280;56035;37.534;-122.308;2023-02-28T07:25:51;101447.22;;;3.68;100.00
68986;BME280;56035;37.534;-122.308;2023-02-28T07:28:17;101447.22;;;3.68;100.00
68986;BME280;56035;37.534;-122.308;2023-02-28T07:30:43;101445.88;;;3.64;100.00
68986;BME280;56035;37.534;-122.308;2023-02-28T07:33:10;101447.28;;;3.60;100.00
68986;BME280;56035;37.534;-122.308;2023-02-28T07:35:36;101448.16;;;3.52;100.00
68986;BME280;56035;37.534;-122.308;2023-02-28T07:38:03;101455.00;;;3.48;100.00
68986;BME280;56035;37.534;-122.308;2023-02-28T07:40:29;101442.09;;;3.42;100.00
68986;BME280;56035;37.534;-122.308;2023-02-28T07:42:55;101443.63;;;3.37;100.00
68986;BME280;56035;37.534;-122.308;2023-02-28T07:45:22;101449.47;;;3.34;100.00
68986;BME280;56035;37.534;-122.308;2023-02-28T07:47:48;101448.47;;;3.26;100.00
68986;BME280;56035;37.534;-122.308;2023-02-28T07:50:16;101447.47;;;3.19;100.00
68986;BME280;56035;37.534;-122.308;2023-02-28T07:52:42;101442.94;;;3.12;100.00
68986;BME280;56035;37.534;-122.308;2023-02-28T07:55:09;101444.31;;;3.08;100.00
68986;BME280;56035;37.534;-122.308;2023-02-28T07:57:36;101440.56;;;3.00;100.00
68986;BME280;56035;37.534;-122.308;2023-02-28T08:00:06;101438.38;;;2.96;100.00
68986;BME280;56035;37.534;-122.308;2023-02-28T08:02:33;101438.06;;;2.91;100.00
68986;BME280;56035;37.534;-122.308;2023-02-28T08:05:00;101436.72;;;2.87;100.00
68986;BME280;56035;37.534;-122.308;2023-02-28T08:07:26;101442.69;;;2.82;100.00
68986;BME280;56035;37.534;-122.308;2023-02-28T08:09:52;101426.38;;;2.74;100.00
68986;BME280;56035;37.534;-122.308;2023-02-28T08:12:19;101434.22;;;2.69;100.00
68986;BME280;56035;37.534;-122.308;2023-02-28T08:14:45;101435.22;;;2.68;100.00
68986;BME280;56035;37.534;-122.308;2023-02-28T08:17:12;101436.75;;;2.70;100.00
68986;BME280;56035;37.534;-122.308;2023-02-28T08:19:38;101430.28;;;2.71;100.00
68986;BME280;56035;37.534;-122.308;2023-02-28T08:22:04;101428.44;;;2.72;100.00
68986;BME280;56035;37.534;-122.308;2023-02-28T08:24:31;101421.78;;;2.74;100.00
68986;BME280;56035;37.534;-122.308;2023-02-28T08:26:57;101425.53;;;2.73;100.00
68986;BME280;56035;37.534;-122.308;2023-02-28T08:29:23;101425.53;;;2.73;100.00
68986;BME280;56035;37.534;-122.308;2023-02-28T08:31:49;101428.06;;;2.83;100.00
68986;BME280;56035;37.534;-122.308;2023-02-28T08:34:16;101414.31;;;2.76;100.00
68986;BME280;56035;37.534;-122.308;2023-02-28T08:36:43;101425.03;;;2.78;100.00
68986;BME280;56035;37.534;-122.308;2023-02-28T08:39:12;101422.31;;;2.78;100.00
68986;BME280;56035;37.534;-122.308;2023-02-28T08:41:38;101416.84;;;2.78;100.00
68986;BME280;56035;37.534;-122.308;2023-02-28T08:44:05;101411.03;;;2.81;100.00
68986;BME280;56035;37.534;-122.308;2023-02-28T08:46:31;101404.59;;;2.82;100.00
68986;BME280;56035;37.534;-122.308;2023-02-28T08:48:57;101413.06;;;2.87;100.00
68986;BME280;56035;37.534;-122.308;2023-02-28T08:51:26;101411.16;;;2.96;100.00
68986;BME280;56035;37.534;-122.308;2023-02-28T08:53:53;101406.84;;;3.10;100.00
68986;BME280;56035;37.534;-122.308;2023-02-28T08:56:21;101408.56;;;3.11;100.00
68986;BME280;56035;37.534;-122.308;2023-02-28T08:58:48;101406.00;;;3.09;100.00
68986;BME280;56035;37.534;-122.308;2023-02-28T09:01:17;101408.56;;;3.11;100.00
68986;BME280;56035;37.534;-122.308;2023-02-28T09:03:44;101420.81;;;3.07;100.00
68986;BME280;56035;37.534;-122.308;2023-02-28T09:06:12;101416.41;;;3.05;100.00
68986;BME280;56035;37.534;-122.308;2023-02-28T09:08:39;101425.97;;;3.01;100.00
68986;BME280;56035;37.534;-122.308;2023-02-28T09:11:06;101425.28;;;2.99;100.00
68986;BME280;56035;37.534;-122.308;2023-02-28T09:13:32;101424.59;;;2.97;100.00
68986;BME280;56035;37.534;-122.308;2023-02-28T09:16:04;101424.78;;;2.96;100.00
68986;BME280;56035;37.534;-122.308;2023-02-28T09:18:31;101436.16;;;2.99;100.00
68986;BME280;56035;37.534;-122.308;2023-02-28T09:20:57;101438.19;;;3.05;100.00
68986;BME280;56035;37.534;-122.308;2023-02-28T09:23:24;101430.16;;;3.12;100.00
68986;BME280;56035;37.534;-122.308;2023-02-28T09:25:53;101438.28;;;3.20;100.00
68986;BME280;56035;37.534;-122.308;2023-02-28T09:28:20;101437.75;;;3.25;100.00
68986;BME280;56035;37.534;-122.308;2023-02-28T09:30:48;101448.94;;;3.30;100.00
68986;BME280;56035;37.534;-122.308;2023-02-28T09:33:15;101443.63;;;3.37;100.00
68986;BME280;56035;37.534;-122.308;2023-02-28T09:35:42;101433.44;;;3.39;100.00
68986;BME280;56035;37.534;-122.308;2023-02-28T09:38:09;101428.94;;;3.46;100.00
68986;BME280;56035;37.534;-122.308;2023-02-28T09:40:51;101422.13;;;3.50;100.00
68986;BME280;56035;37.534;-122.308;2023-02-28T09:43:20;101419.78;;;3.47;100.00
68986;BME280;56035;37.534;-122.308;2023-02-28T09:46:00;101420.66;;;3.39;100.00
68986;BME280;56035;37.534;-122.308;2023-02-28T09:48:32;101424.97;;;3.34;100.00
68986;BME280;56035;37.534;-122.308;2023-02-28T09:51:15;101420.03;;;3.29;100.00
68986;BME280;56035;37.534;-122.308;2023-02-28T09:53:48;101412.91;;;3.20;100.00
68986;BME280;56035;37.534;-122.308;2023-02-28T09:56:39;101414.31;;;3.16;100.00
68986;BME280;56035;37.534;-122.308;2023-02-28T10:02:04;101402.09;;;3.03;100.00
68986;BME280;56035;37.534;-122.308;2023-02-28T10:04:56;101409.47;;;2.95;100.00
68986;BME280;56035;37.534;-122.308;2023-02-28T10:07:41;101395.41;;;2.83;100.00
68986;BME280;56035;37.534;-122.308;2023-02-28T10:10:26;101394.41;;;2.76;100.00
68986;BME280;56035;37.534;-122.308;2023-02-28T10:12:56;101399.22;;;2.66;100.00
68986;BME280;56035;37.534;-122.308;2023-02-28T10:15:26;101389.19;;;2.58;100.00
68986;BME280;56035;37.534;-122.308;2023-02-28T10:17:59;101392.63;;;2.52;100.00
68986;BME280;56035;37.534;-122.308;2023-02-28T10:20:29;101387.88;;;2.46;100.00
68986;BME280;56035;37.534;-122.308;2023-02-28T10:25:35;101383.63;;;2.35;100.00
68986;BME280;56035;37.534;-122.308;2023-02-28T10:28:09;101379.56;;;2.31;100.00
68986;BME280;56035;37.534;-122.308;2023-02-28T10:30:42;101375.66;;;2.25;100.00
68986;BME280;56035;37.534;-122.308;2023-02-28T10:33:32;101377.88;;;2.22;100.00
68986;BME280;56035;37.534;-122.308;2023-02-28T10:36:00;101370.25;;;2.17;100.00
68986;BME280;56035;37.534;-122.308;2023-02-28T10:38:33;101364.31;;;2.14;100.00
68986;BME280;56035;37.534;-122.308;2023-02-28T10:41:14;101361.09;;;2.10;100.00
68986;BME280;56035;37.534;-122.308;2023-02-28T10:43:42;101356.84;;;2.07;100.00
68986;BME280;56035;37.534;-122.308;2023-02-28T10:46:13;101353.44;;;2.05;100.00
68986;BME280;56035;37.534;-122.308;2023-02-28T10:51:35;101352.78;;;2.03;100.00
68986;BME280;56035;37.534;-122.308;2023-02-28T10:54:03;101343.94;;;2.01;100.00
68986;BME280;56035;37.534;-122.308;2023-02-28T10:56:31;101349.38;;;2.01;100.00
68986;BME280;56035;37.534;-122.308;2023-02-28T10:59:20;101350.56;;;1.99;100.00
68986;BME280;56035;37.534;-122.308;2023-02-28T11:01:49;101352.44;;;1.98;100.00
68986;BME280;56035;37.534;-122.308;2023-02-28T11:04:19;101345.13;;;1.99;100.00
68986;BME280;56035;37.534;-122.308;2023-02-28T11:06:48;101351.78;;;1.96;100.00
68986;BME280;56035;37.534;-122.308;2023-02-28T11:11:55;101341.75;;;1.97;100.00
68986;BME280;56035;37.534;-122.308;2023-02-28T11:14:36;101337.16;;;1.97;100.00
68986;BME280;56035;37.534;-122.308;2023-02-28T11:17:20;101339.69;;;1.99;100.00
68986;BME280;56035;37.534;-122.308;2023-02-28T11:19:51;101332.38;;;1.99;100.00
68986;BME280;56035;37.534;-122.308;2023-02-28T11:22:22;101330.00;;;2.04;100.00
68986;BME280;56035;37.534;-122.308;2023-02-28T11:24:53;101339.84;;;2.05;100.00
68986;BME280;56035;37.534;-122.308;2023-02-28T11:29:56;101338.31;;;2.11;100.00
68986;BME280;56035;37.534;-122.308;2023-02-28T11:32:26;101338.16;;;2.13;100.00
68986;BME280;56035;37.534;-122.308;2023-02-28T11:35:15;101337.13;;;2.14;100.00
68986;BME280;56035;37.534;-122.308;2023-02-28T11:37:43;101330.84;;;2.13;100.00
68986;BME280;56035;37.534;-122.308;2023-02-28T11:40:15;101330.34;;;2.09;100.00
68986;BME280;56035;37.534;-122.308;2023-02-28T11:43:01;101327.44;;;2.11;100.00
68986;BME280;56035;37.534;-122.308;2023-02-28T11:45:36;101328.28;;;2.11;100.00
68986;BME280;56035;37.534;-122.308;2023-02-28T11:48:31;101317.41;;;2.11;100.00
68986;BME280;56035;37.534;-122.308;2023-02-28T12:07:13;101316.38;;;2.29;100.00
68986;BME280;56035;37.534;-122.308;2023-02-28T12:15:32;101301.53;;;2.40;100.00
68986;BME280;56035;37.534;-122.308;2023-02-28T12:28:59;101288.88;;;2.55;100.00
68986;BME280;56035;37.534;-122.308;2023-02-28T12:31:58;101287.53;;;2.59;100.00
68986;BME280;56035;37.534;-122.308;2023-02-28T12:34:31;101278.16;;;2.62;100.00
68986;BME280;56035;37.534;-122.308;2023-02-28T12:37:03;101277.63;;;2.66;100.00
68986;BME280;56035;37.534;-122.308;2023-02-28T12:39:43;101274.50;;;2.77;100.00
68986;BME280;56035;37.534;-122.308;2023-02-28T12:42:24;101273.25;;;2.88;100.00
68986;BME280;56035;37.534;-122.308;2023-02-28T12:44:58;101272.13;;;3.05;100.00
68986;BME280;56035;37.534;-122.308;2023-02-28T12:47:25;101277.22;;;3.09;100.00
68986;BME280;56035;37.534;-122.308;2023-02-28T12:50:05;101285.31;;;3.17;100.00
68986;BME280;56035;37.534;-122.308;2023-02-28T12:52:40;101281.22;;;3.21;100.00
68986;BME280;56035;37.534;-122.308;2023-02-28T12:55:18;101285.25;;;3.25;100.00
68986;BME280;56035;37.534;-122.308;2023-02-28T13:03:37;101284.78;;;3.44;100.00
68986;BME280;56035;37.534;-122.308;2023-02-28T13:06:20;101268.19;;;3.54;100.00
68986;BME280;56035;37.534;-122.308;2023-02-28T13:09:02;101270.75;;;3.70;100.00
68986;BME280;56035;37.534;-122.308;2023-02-28T13:11:38;101272.91;;;3.75;100.00
68986;BME280;56035;37.534;-122.308;2023-02-28T13:14:20;101265.88;;;3.81;100.00
68986;BME280;56035;37.534;-122.308;2023-02-28T13:20:14;101277.25;;;3.84;100.00
68986;BME280;56035;37.534;-122.308;2023-02-28T13:22:46;101267.88;;;3.87;100.00
68986;BME280;56035;37.534;-122.308;2023-02-28T13:33:27;101266.09;;;4.23;100.00
68986;BME280;56035;37.534;-122.308;2023-02-28T13:38:49;101257.84;;;4.32;100.00
68986;BME280;56035;37.534;-122.308;2023-02-28T13:49:28;101263.66;;;4.43;100.00
68986;BME280;56035;37.534;-122.308;2023-02-28T13:54:44;101267.69;;;4.47;100.00
68986;BME280;56035;37.534;-122.308;2023-02-28T14:06:28;101244.47;;;4.52;100.00
68986;BME280;56035;37.534;-122.308;2023-02-28T14:11:47;101234.19;;;4.54;100.00
68986;BME280;56035;37.534;-122.308;2023-02-28T14:17:17;101228.63;;;4.62;100.00
68986;BME280;56035;37.534;-122.308;2023-02-28T14:19:45;101220.44;;;4.62;100.00
68986;BME280;56035;37.534;-122.308;2023-02-28T14:22:46;101227.19;;;4.66;100.00
68986;BME280;56035;37.534;-122.308;2023-02-28T14:25:30;101213.16;;;4.69;100.00
68986;BME280;56035;37.534;-122.308;2023-02-28T14:36:08;101184.38;;;4.66;100.00
68986;BME280;56035;37.534;-122.308;2023-02-28T14:38:46;101177.69;;;4.69;100.00